sensor_id;sensor_type;location;lat;lon;timestamp;pressure;altitude;pressure_sealevel;temperature;humidity
30516;BME280;17297;54.022;10.760;2023-05-03T00:02:08;102714.44;;;10.11;48.34
30516;BME280;17297;54.022;10.760;2023-05-03T00:04:35;102715.44;;;10.10;48.45
30516;BME280;17297;54.022;10.760;2023-05-03T00:07:01;102712.19;;;10.07;48.61
30516;BME280;17297;54.022;10.760;2023-05-03T00:09:28;102718.53;;;10.06;48.52
30516;BME280;17297;54.022;10.760;2023-05-03T00:11:53;102716.84;;;10.05;48.50
30516;BME280;17297;54.022;10.760;2023-05-03T00:14:18;102717.00;;;10.03;48.64
30516;BME280;17297;54.022;10.760;2023-05-03T00:16:44;102720.81;;;10.01;48.77
30516;BME280;17297;54.022;10.760;2023-05-03T00:19:09;102720.94;;;9.99;48.83
30516;BME280;17297;54.022;10.760;2023-05-03T00:21:34;102719.25;;;9.98;48.80
30516;BME280;17297;54.022;10.760;2023-05-03T00:24:00;102721.22;;;9.96;48.87
30516;BME280;17297;54.022;10.760;2023-05-03T00:26:26;102716.97;;;9.93;48.81
30516;BME280;17297;54.022;10.760;2023-05-03T00:28:52;102719.09;;;9.90;48.99
30516;BME280;17297;54.022;10.760;2023-05-03T00:31:17;102721.09;;;9.88;48.83
30516;BME280;17297;54.022;10.760;2023-05-03T00:33:43;102720.38;;;9.86;49.09
30516;BME280;17297;54.022;10.760;2023-05-03T00:36:10;102719.66;;;9.84;48.92
30516;BME280;17297;54.022;10.760;2023-05-03T00:38:36;102719.81;;;9.82;49.01
30516;BME280;17297;54.022;10.760;2023-05-03T00:41:01;102718.13;;;9.81;49.18
30516;BME280;17297;54.022;10.760;2023-05-03T00:43:28;102714.84;;;9.78;49.30
30516;BME280;17297;54.022;10.760;2023-05-03T00:45:53;102723.06;;;9.76;49.17
30516;BME280;17297;54.022;10.760;2023-05-03T00:48:19;102722.50;;;9.73;49.16
30516;BME280;17297;54.022;10.760;2023-05-03T00:50:46;102723.63;;;9.70;49.38
30516;BME280;17297;54.022;10.760;2023-05-03T00:53:12;102722.78;;;9.69;49.36
30516;BME280;17297;54.022;10.760;2023-05-03T00:55:39;102721.06;;;9.68;49.43
30516;BME280;17297;54.022;10.760;2023-05-03T00:58:05;102722.91;;;9.68;49.33
30516;BME280;17297;54.022;10.760;2023-05-03T01:00:31;102727.72;;;9.64;49.65
30516;BME280;17297;54.022;10.760;2023-05-03T01:02:56;102735.91;;;9.63;49.57
30516;BME280;17297;54.022;10.760;2023-05-03T01:05:22;102726.28;;;9.60;49.63
30516;BME280;17297;54.022;10.760;2023-05-03T01:08:46;102731.78;;;9.59;49.57
30516;BME280;17297;54.022;10.760;2023-05-03T01:10:59;102727.53;;;9.56;49.58
30516;BME280;17297;54.022;10.760;2023-05-03T01:16:20;102735.03;;;9.53;49.67
30516;BME280;17297;54.022;10.760;2023-05-03T01:18:48;102727.25;;;9.49;49.75
30516;BME280;17297;54.022;10.760;2023-05-03T01:21:17;102725.56;;;9.48;49.79
30516;BME280;17297;54.022;10.760;2023-05-03T01:23:56;102728.50;;;9.45;49.96
30516;BME280;17297;54.022;10.760;2023-05-03T01:26:25;102741.94;;;9.45;49.84
30516;BME280;17297;54.022;10.760;2023-05-03T01:28:51;102739.53;;;9.42;49.91
30516;BME280;17297;54.022;10.760;2023-05-03T01:31:21;102743.22;;;9.41;49.97
30516;BME280;17297;54.022;10.760;2023-05-03T01:36:29;102733.72;;;9.37;50.22
30516;BME280;17297;54.022;10.760;2023-05-03T01:38:58;102740.94;;;9.37;50.42
30516;BME280;17297;54.022;10.760;2023-05-03T01:41:25;102740.22;;;9.35;50.30
30516;BME280;17297;54.022;10.760;2023-05-03T01:43:52;102741.19;;;9.34;50.25
30516;BME280;17297;54.022;10.760;2023-05-03T01:46:19;102743.03;;;9.33;50.49
30516;BME280;17297;54.022;10.760;2023-05-03T01:48:46;102741.47;;;9.31;50.60
30516;BME280;17297;54.022;10.760;2023-05-03T01:51:11;102747.84;;;9.30;50.58
30516;BME280;17297;54.022;10.760;2023-05-03T01:53:36;102756.75;;;9.30;50.63
30516;BME280;17297;54.022;10.760;2023-05-03T01:56:02;102752.47;;;9.28;50.69
30516;BME280;17297;54.022;10.760;2023-05-03T01:58:27;102748.94;;;9.27;50.81
30516;BME280;17297;54.022;10.760;2023-05-03T02:00:52;102754.47;;;9.25;50.57
30516;BME280;17297;54.022;10.760;2023-05-03T02:03:18;102762.53;;;9.25;50.66
30516;BME280;17297;54.022;10.760;2023-05-03T02:05:44;102755.72;;;9.21;50.78
30516;BME280;17297;54.022;10.760;2023-05-03T02:08:10;102757.69;;;9.19;50.90
30516;BME280;17297;54.022;10.760;2023-05-03T02:10:35;102754.28;;;9.17;50.89
30516;BME280;17297;54.022;10.760;2023-05-03T02:13:01;102757.97;;;9.16;50.81
30516;BME280;17297;54.022;10.760;2023-05-03T02:15:26;102765.31;;;9.14;50.88
30516;BME280;17297;54.022;10.760;2023-05-03T02:17:51;102757.25;;;9.14;50.85
30516;BME280;17297;54.022;10.760;2023-05-03T02:20:18;102761.88;;;9.12;51.04
30516;BME280;17297;54.022;10.760;2023-05-03T02:22:43;102769.25;;;9.10;51.05
30516;BME280;17297;54.022;10.760;2023-05-03T02:25:09;102771.09;;;9.10;51.05
30516;BME280;17297;54.022;10.760;2023-05-03T02:27:34;102765.00;;;9.08;51.18
30516;BME280;17297;54.022;10.760;2023-05-03T02:30:00;102776.72;;;9.07;51.14
30516;BME280;17297;54.022;10.760;2023-05-03T02:32:26;102771.47;;;9.05;51.32
30516;BME280;17297;54.022;10.760;2023-05-03T02:34:51;102773.44;;;9.03;51.13
30516;BME280;17297;54.022;10.760;2023-05-03T02:37:19;102777.09;;;9.02;51.37
30516;BME280;17297;54.022;10.760;2023-05-03T02:39:45;102783.59;;;8.99;51.23
30516;BME280;17297;54.022;10.760;2023-05-03T02:42:13;102777.63;;;8.96;51.41
30516;BME280;17297;54.022;10.760;2023-05-03T02:44:38;102779.59;;;8.94;51.40
30516;BME280;17297;54.022;10.760;2023-05-03T02:47:04;102786.94;;;8.92;51.49
30516;BME280;17297;54.022;10.760;2023-05-03T02:49:29;102785.50;;;8.88;51.48
30516;BME280;17297;54.022;10.760;2023-05-03T02:51:55;102787.59;;;8.84;51.41
30516;BME280;17297;54.022;10.760;2023-05-03T02:54:21;102784.31;;;8.81;51.62
30516;BME280;17297;54.022;10.760;2023-05-03T02:56:47;102785.44;;;8.78;51.43
30516;BME280;17297;54.022;10.760;2023-05-03T02:59:12;102793.63;;;8.76;51.46
30516;BME280;17297;54.022;10.760;2023-05-03T03:01:38;102788.53;;;8.73;51.50
30516;BME280;17297;54.022;10.760;2023-05-03T03:04:05;102791.47;;;8.70;51.76
30516;BME280;17297;54.022;10.760;2023-05-03T03:06:30;102796.25;;;8.67;51.47
30516;BME280;17297;54.022;10.760;2023-05-03T03:08:56;102796.38;;;8.65;51.70
30516;BME280;17297;54.022;10.760;2023-05-03T03:11:22;102794.94;;;8.61;51.81
30516;BME280;17297;54.022;10.760;2023-05-03T03:13:48;102796.88;;;8.59;51.64
30516;BME280;17297;54.022;10.760;2023-05-03T03:16:13;102795.31;;;8.56;51.82
30516;BME280;17297;54.022;10.760;2023-05-03T03:18:39;102796.44;;;8.54;51.74
30516;BME280;17297;54.022;10.760;2023-05-03T03:21:04;102797.56;;;8.51;51.91
30516;BME280;17297;54.022;10.760;2023-05-03T03:23:31;102791.59;;;8.48;51.92
30516;BME280;17297;54.022;10.760;2023-05-03T03:25:57;102792.81;;;8.44;52.07
30516;BME280;17297;54.022;10.760;2023-05-03T03:28:23;102792.81;;;8.44;52.06
30516;BME280;17297;54.022;10.760;2023-05-03T03:30:49;102792.97;;;8.42;51.94
30516;BME280;17297;54.022;10.760;2023-05-03T03:33:20;102801.13;;;8.41;52.10
30516;BME280;17297;54.022;10.760;2023-05-03T03:35:46;102800.41;;;8.39;52.05
30516;BME280;17297;54.022;10.760;2023-05-03T03:38:11;102798.66;;;8.38;51.97
30516;BME280;17297;54.022;10.760;2023-05-03T03:40:45;102794.44;;;8.35;52.07
30516;BME280;17297;54.022;10.760;2023-05-03T03:43:10;102796.25;;;8.34;52.08
30516;BME280;17297;54.022;10.760;2023-05-03T03:45:36;102807.09;;;8.33;52.08
30516;BME280;17297;54.022;10.760;2023-05-03T03:48:03;102808.94;;;8.32;52.45
30516;BME280;17297;54.022;10.760;2023-05-03T03:50:29;102808.09;;;8.32;52.23
30516;BME280;17297;54.022;10.760;2023-05-03T03:52:55;102806.38;;;8.31;52.42
30516;BME280;17297;54.022;10.760;2023-05-03T03:55:21;102802.75;;;8.32;52.31
30516;BME280;17297;54.022;10.760;2023-05-03T03:57:50;102797.38;;;8.32;52.52
30516;BME280;17297;54.022;10.760;2023-05-03T04:00:15;102801.59;;;8.34;52.40
30516;BME280;17297;54.022;10.760;2023-05-03T04:02:47;102807.69;;;8.37;52.56
30516;BME280;17297;54.022;10.760;2023-05-03T04:05:16;102796.50;;;8.43;52.62
30516;BME280;17297;54.022;10.760;2023-05-03T04:07:43;102801.56;;;8.57;52.68
30516;BME280;17297;54.022;10.760;2023-05-03T04:10:09;102801.53;;;8.78;52.54
30516;BME280;17297;54.022;10.760;2023-05-03T04:12:37;102795.16;;;9.00;52.45
30516;BME280;17297;54.022;10.760;2023-05-03T04:15:03;102801.78;;;9.17;52.47
30516;BME280;17297;54.022;10.760;2023-05-03T04:17:29;102788.41;;;9.27;52.38
30516;BME280;17297;54.022;10.760;2023-05-03T04:19:56;102793.06;;;9.34;52.20
30516;BME280;17297;54.022;10.760;2023-05-03T04:22:22;102790.84;;;9.39;52.43
30516;BME280;17297;54.022;10.760;2023-05-03T04:24:47;102794.94;;;9.43;52.33
30516;BME280;17297;54.022;10.760;2023-05-03T04:27:13;102793.16;;;9.44;52.35
30516;BME280;17297;54.022;10.760;2023-05-03T04:29:39;102800.94;;;9.47;52.45
30516;BME280;17297;54.022;10.760;2023-05-03T04:32:05;102807.31;;;9.56;52.28
30516;BME280;17297;54.022;10.760;2023-05-03T04:34:32;102800.41;;;9.63;52.26
30516;BME280;17297;54.022;10.760;2023-05-03T04:36:59;102805.38;;;9.67;52.31
30516;BME280;17297;54.022;10.760;2023-05-03T04:39:26;102800.44;;;9.73;52.60
30516;BME280;17297;54.022;10.760;2023-05-03T04:41:51;102814.19;;;9.79;52.37
30516;BME280;17297;54.022;10.760;2023-05-03T04:44:17;102810.78;;;9.87;52.37
30516;BME280;17297;54.022;10.760;2023-05-03T04:46:43;102812.53;;;9.98;52.53
30516;BME280;17297;54.022;10.760;2023-05-03T04:49:09;102815.94;;;10.09;52.50
30516;BME280;17297;54.022;10.760;2023-05-03T04:51:35;102818.47;;;10.21;52.37
30516;BME280;17297;54.022;10.760;2023-05-03T04:54:00;102827.16;;;10.34;52.31
30516;BME280;17297;54.022;10.760;2023-05-03T04:56:26;102822.94;;;10.51;52.41
30516;BME280;17297;54.022;10.760;2023-05-03T04:58:58;102826.16;;;10.74;52.21
30516;BME280;17297;54.022;10.760;2023-05-03T05:01:24;102820.16;;;11.09;51.82
30516;BME280;17297;54.022;10.760;2023-05-03T05:03:55;102828.97;;;11.39;51.68
30516;BME280;17297;54.022;10.760;2023-05-03T05:06:26;102837.13;;;11.56;51.39
30516;BME280;17297;54.022;10.760;2023-05-03T05:08:52;102830.25;;;11.72;51.19
30516;BME280;17297;54.022;10.760;2023-05-03T05:11:17;102835.66;;;11.99;51.31
30516;BME280;17297;54.022;10.760;2023-05-03T05:13:45;102825.03;;;12.52;50.95
30516;BME280;17297;54.022;10.760;2023-05-03T05:16:11;102824.97;;;13.05;50.90
30516;BME280;17297;54.022;10.760;2023-05-03T05:18:40;102827.28;;;13.60;50.57
30516;BME280;17297;54.022;10.760;2023-05-03T05:21:07;102826.28;;;14.12;50.13
30516;BME280;17297;54.022;10.760;2023-05-03T05:23:34;102827.38;;;14.60;49.56
30516;BME280;17297;54.022;10.760;2023-05-03T05:26:00;102838.72;;;15.05;49.12
30516;BME280;17297;54.022;10.760;2023-05-03T05:28:29;102827.78;;;15.29;48.58
30516;BME280;17297;54.022;10.760;2023-05-03T05:30:54;102835.34;;;15.50;48.35
30516;BME280;17297;54.022;10.760;2023-05-03T05:33:20;102835.66;;;15.72;48.25
30516;BME280;17297;54.022;10.760;2023-05-03T05:35:47;102843.69;;;15.88;47.67
30516;BME280;17297;54.022;10.760;2023-05-03T05:38:15;102843.09;;;16.09;47.64
30516;BME280;17297;54.022;10.760;2023-05-03T05:40:42;102850.47;;;16.23;47.23
30516;BME280;17297;54.022;10.760;2023-05-03T05:43:07;102842.13;;;16.48;47.18
30516;BME280;17297;54.022;10.760;2023-05-03T05:45:35;102846.63;;;16.63;46.64
30516;BME280;17297;54.022;10.760;2023-05-03T05:48:02;102846.25;;;16.67;46.42
30516;BME280;17297;54.022;10.760;2023-05-03T05:50:28;102855.88;;;16.54;46.37
30516;BME280;17297;54.022;10.760;2023-05-03T05:52:59;102860.25;;;16.32;46.17
30516;BME280;17297;54.022;10.760;2023-05-03T05:55:29;102857.00;;;16.06;46.22
30516;BME280;17297;54.022;10.760;2023-05-03T05:57:56;102859.84;;;15.81;46.49
30516;BME280;17297;54.022;10.760;2023-05-03T06:00:26;102861.63;;;15.58;46.52
30516;BME280;17297;54.022;10.760;2023-05-03T06:02:51;102864.72;;;15.38;46.63
30516;BME280;17297;54.022;10.760;2023-05-03T06:05:19;102876.59;;;15.29;46.95
30516;BME280;17297;54.022;10.760;2023-05-03T06:07:45;102866.78;;;15.28;46.91
30516;BME280;17297;54.022;10.760;2023-05-03T06:10:11;102864.91;;;15.29;46.74
30516;BME280;17297;54.022;10.760;2023-05-03T06:12:39;102869.81;;;15.33;46.63
30516;BME280;17297;54.022;10.760;2023-05-03T06:15:10;102874.03;;;15.44;46.84
30516;BME280;17297;54.022;10.760;2023-05-03T06:17:36;102867.72;;;15.68;46.87
30516;BME280;17297;54.022;10.760;2023-05-03T06:20:01;102875.63;;;15.86;46.65
30516;BME280;17297;54.022;10.760;2023-05-03T06:22:28;102871.31;;;16.00;46.39
30516;BME280;17297;54.022;10.760;2023-05-03T06:24:54;102872.59;;;16.12;46.40
30516;BME280;17297;54.022;10.760;2023-05-03T06:27:23;102873.91;;;16.16;46.35
30516;BME280;17297;54.022;10.760;2023-05-03T06:29:50;102870.69;;;16.21;46.35
30516;BME280;17297;54.022;10.760;2023-05-03T06:32:15;102879.16;;;16.49;46.13
30516;BME280;17297;54.022;10.760;2023-05-03T06:34:41;102875.94;;;16.91;46.08
30516;BME280;17297;54.022;10.760;2023-05-03T06:37:06;102880.63;;;17.35;45.55
30516;BME280;17297;54.022;10.760;2023-05-03T06:39:31;102872.56;;;17.86;45.35
30516;BME280;17297;54.022;10.760;2023-05-03T06:41:57;102877.72;;;18.32;44.81
30516;BME280;17297;54.022;10.760;2023-05-03T06:44:31;102873.84;;;18.63;44.48
30516;BME280;17297;54.022;10.760;2023-05-03T06:46:56;102865.53;;;18.92;44.02
30516;BME280;17297;54.022;10.760;2023-05-03T06:49:22;102875.00;;;19.25;43.92
30516;BME280;17297;54.022;10.760;2023-05-03T06:51:47;102867.78;;;19.80;43.43
30516;BME280;17297;54.022;10.760;2023-05-03T06:54:12;102864.66;;;20.51;42.61
30516;BME280;17297;54.022;10.760;2023-05-03T06:56:39;102862.34;;;21.14;42.22
30516;BME280;17297;54.022;10.760;2023-05-03T06:59:05;102854.88;;;21.75;41.00
30516;BME280;17297;54.022;10.760;2023-05-03T07:01:32;102864.72;;;22.34;40.57
30516;BME280;17297;54.022;10.760;2023-05-03T07:03:58;102863.03;;;22.90;39.83
30516;BME280;17297;54.022;10.760;2023-05-03T07:06:23;102863.00;;;23.40;39.55
30516;BME280;17297;54.022;10.760;2023-05-03T07:08:50;102861.47;;;23.81;38.30
30516;BME280;17297;54.022;10.760;2023-05-03T07:11:17;102863.28;;;23.68;37.86
30516;BME280;17297;54.022;10.760;2023-05-03T07:13:44;102869.81;;;23.12;37.90
30516;BME280;17297;54.022;10.760;2023-05-03T07:16:10;102857.06;;;22.68;37.97
30516;BME280;17297;54.022;10.760;2023-05-03T07:18:35;102862.50;;;22.04;38.20
30516;BME280;17297;54.022;10.760;2023-05-03T07:21:00;102858.13;;;21.32;38.11
30516;BME280;17297;54.022;10.760;2023-05-03T07:23:30;102871.81;;;20.59;38.40
30516;BME280;17297;54.022;10.760;2023-05-03T07:25:55;102872.25;;;19.88;38.72
30516;BME280;17297;54.022;10.760;2023-05-03T07:28:21;102866.81;;;19.25;38.67
30516;BME280;17297;54.022;10.760;2023-05-03T07:30:46;102878.50;;;18.69;39.16
30516;BME280;17297;54.022;10.760;2023-05-03T07:33:12;102880.50;;;18.17;39.82
30516;BME280;17297;54.022;10.760;2023-05-03T07:35:37;102878.78;;;17.80;40.08
30516;BME280;17297;54.022;10.760;2023-05-03T07:38:02;102871.34;;;17.59;40.68
30516;BME280;17297;54.022;10.760;2023-05-03T07:40:28;102874.25;;;17.43;40.66
30516;BME280;17297;54.022;10.760;2023-05-03T07:42:58;102875.06;;;17.28;40.80
30516;BME280;17297;54.022;10.760;2023-05-03T07:45:23;102872.00;;;17.17;41.03
30516;BME280;17297;54.022;10.760;2023-05-03T07:47:48;102877.19;;;17.03;41.44
30516;BME280;17297;54.022;10.760;2023-05-03T07:50:14;102866.84;;;16.84;41.25
30516;BME280;17297;54.022;10.760;2023-05-03T07:52:39;102875.63;;;16.63;41.50
30516;BME280;17297;54.022;10.760;2023-05-03T07:55:06;102872.72;;;16.42;41.71
30516;BME280;17297;54.022;10.760;2023-05-03T07:57:32;102872.38;;;16.22;41.90
30516;BME280;17297;54.022;10.760;2023-05-03T07:59:57;102875.34;;;16.04;42.15
30516;BME280;17297;54.022;10.760;2023-05-03T08:02:23;102875.63;;;15.86;42.31
30516;BME280;17297;54.022;10.760;2023-05-03T08:04:48;102880.94;;;15.71;42.45
30516;BME280;17297;54.022;10.760;2023-05-03T08:07:13;102872.47;;;15.58;42.66
30516;BME280;17297;54.022;10.760;2023-05-03T08:09:39;102884.88;;;15.44;42.81
30516;BME280;17297;54.022;10.760;2023-05-03T08:12:05;102883.72;;;15.30;42.87
30516;BME280;17297;54.022;10.760;2023-05-03T08:14:31;102885.94;;;15.18;43.01
30516;BME280;17297;54.022;10.760;2023-05-03T08:16:57;102893.22;;;15.10;43.18
30516;BME280;17297;54.022;10.760;2023-05-03T08:19:23;102878.84;;;15.09;43.06
30516;BME280;17297;54.022;10.760;2023-05-03T08:21:49;102879.53;;;15.11;43.01
30516;BME280;17297;54.022;10.760;2023-05-03T08:24:16;102873.91;;;15.21;43.43
30516;BME280;17297;54.022;10.760;2023-05-03T08:26:41;102888.31;;;15.30;43.20
30516;BME280;17297;54.022;10.760;2023-05-03T08:29:07;102881.38;;;15.27;42.87
30516;BME280;17297;54.022;10.760;2023-05-03T08:31:33;102893.75;;;15.21;43.09
30516;BME280;17297;54.022;10.760;2023-05-03T08:33:59;102893.94;;;15.12;42.86
30516;BME280;17297;54.022;10.760;2023-05-03T08:36:25;102891.38;;;15.02;42.99
30516;BME280;17297;54.022;10.760;2023-05-03T08:38:51;102891.38;;;14.94;43.09
30516;BME280;17297;54.022;10.760;2023-05-03T08:41:32;102896.78;;;14.86;43.47
30516;BME280;17297;54.022;10.760;2023-05-03T08:43:59;102895.78;;;14.78;43.54
30516;BME280;17297;54.022;10.760;2023-05-03T08:46:26;102896.47;;;14.72;43.66
30516;BME280;17297;54.022;10.760;2023-05-03T08:48:53;102893.75;;;14.64;43.66
30516;BME280;17297;54.022;10.760;2023-05-03T08:51:20;102894.09;;;14.61;43.89
30516;BME280;17297;54.022;10.760;2023-05-03T08:53:45;102891.06;;;14.64;43.93
30516;BME280;17297;54.022;10.760;2023-05-03T08:56:16;102898.50;;;14.70;44.15
30516;BME280;17297;54.022;10.760;2023-05-03T08:58:45;102902.72;;;14.73;44.05
30516;BME280;17297;54.022;10.760;2023-05-03T09:01:10;102906.13;;;14.75;44.04
30516;BME280;17297;54.022;10.760;2023-05-03T09:03:38;102910.69;;;14.74;44.10
30516;BME280;17297;54.022;10.760;2023-05-03T09:06:18;102900.84;;;14.73;44.15
30516;BME280;17297;54.022;10.760;2023-05-03T09:08:43;102903.56;;;14.73;44.13
30516;BME280;17297;54.022;10.760;2023-05-03T09:11:28;102904.44;;;14.74;43.99
30516;BME280;17297;54.022;10.760;2023-05-03T09:16:37;102915.75;;;14.69;43.80
30516;BME280;17297;54.022;10.760;2023-05-03T09:19:05;102916.59;;;14.62;43.99
30516;BME280;17297;54.022;10.760;2023-05-03T09:21:34;102912.69;;;14.56;43.82
30516;BME280;17297;54.022;10.760;2023-05-03T09:24:00;102912.00;;;14.54;44.14
30516;BME280;17297;54.022;10.760;2023-05-03T09:26:32;102917.75;;;14.51;44.11
30516;BME280;17297;54.022;10.760;2023-05-03T09:28:59;102917.75;;;14.51;44.44
30516;BME280;17297;54.022;10.760;2023-05-03T09:31:27;102922.31;;;14.50;44.49
30516;BME280;17297;54.022;10.760;2023-05-03T09:33:53;102921.47;;;14.50;44.49
30516;BME280;17297;54.022;10.760;2023-05-03T09:36:19;102919.47;;;14.52;44.28
30516;BME280;17297;54.022;10.760;2023-05-03T09:38:44;102920.13;;;14.54;44.39
30516;BME280;17297;54.022;10.760;2023-05-03T09:41:09;102917.09;;;14.57;44.47
30516;BME280;17297;54.022;10.760;2023-05-03T09:43:47;102919.47;;;14.60;44.53
30516;BME280;17297;54.022;10.760;2023-05-03T09:46:13;102923.56;;;14.64;44.11
30516;BME280;17297;54.022;10.760;2023-05-03T09:48:39;102915.25;;;14.66;44.31
30516;BME280;17297;54.022;10.760;2023-05-03T09:51:06;102911.03;;;14.71;44.21
30516;BME280;17297;54.022;10.760;2023-05-03T09:53:34;102905.78;;;14.86;43.91
30516;BME280;17297;54.022;10.760;2023-05-03T09:56:04;102896.63;;;14.87;43.82
30516;BME280;17297;54.022;10.760;2023-05-03T09:58:31;102903.75;;;14.80;43.89
30516;BME280;17297;54.022;10.760;2023-05-03T10:00:59;102910.19;;;14.71;43.66
30516;BME280;17297;54.022;10.760;2023-05-03T10:03:40;102907.09;;;14.58;43.94
30516;BME280;17297;54.022;10.760;2023-05-03T10:06:17;102903.22;;;14.52;43.97
30516;BME280;17297;54.022;10.760;2023-05-03T10:08:51;102896.94;;;14.51;44.02
30516;BME280;17297;54.022;10.760;2023-05-03T10:11:18;102897.63;;;14.53;43.78
30516;BME280;17297;54.022;10.760;2023-05-03T10:13:44;102895.44;;;14.57;43.70
30516;BME280;17297;54.022;10.760;2023-05-03T10:16:13;102903.41;;;14.59;43.91
30516;BME280;17297;54.022;10.760;2023-05-03T10:18:52;102895.78;;;14.62;43.62
30516;BME280;17297;54.022;10.760;2023-05-03T10:21:41;102895.44;;;14.65;43.93
30516;BME280;17297;54.022;10.760;2023-05-03T10:24:14;102895.63;;;14.72;43.80
30516;BME280;17297;54.022;10.760;2023-05-03T10:26:43;102901.91;;;14.81;43.53
30516;BME280;17297;54.022;10.760;2023-05-03T10:32:04;102902.56;;;14.91;43.28
30516;BME280;17297;54.022;10.760;2023-05-03T10:34:35;102906.63;;;14.87;43.47
30516;BME280;17297;54.022;10.760;2023-05-03T10:37:08;102907.63;;;14.86;43.50
30516;BME280;17297;54.022;10.760;2023-05-03T10:39:34;102910.88;;;14.81;43.67
30516;BME280;17297;54.022;10.760;2023-05-03T10:42:04;102905.78;;;14.78;44.12
30516;BME280;17297;54.022;10.760;2023-05-03T10:44:49;102902.03;;;14.79;44.06
30516;BME280;17297;54.022;10.760;2023-05-03T10:47:17;102911.72;;;14.82;43.97
30516;BME280;17297;54.022;10.760;2023-05-03T10:49:43;102902.75;;;14.81;43.97
30516;BME280;17297;54.022;10.760;2023-05-03T10:52:44;102892.59;;;14.83;43.82
30516;BME280;17297;54.022;10.760;2023-05-03T10:55:20;102901.56;;;14.84;43.60
30516;BME280;17297;54.022;10.760;2023-05-03T10:57:47;102897.66;;;14.86;43.78
30516;BME280;17297;54.022;10.760;2023-05-03T11:00:16;102900.88;;;14.90;43.59
30516;BME280;17297;54.022;10.760;2023-05-03T11:03:05;102895.47;;;14.90;43.63
30516;BME280;17297;54.022;10.760;2023-05-03T11:05:34;102892.56;;;14.91;43.83
30516;BME280;17297;54.022;10.760;2023-05-03T11:08:15;102898.66;;;14.93;43.96
30516;BME280;17297;54.022;10.760;2023-05-03T11:10:44;102893.94;;;14.95;43.84
30516;BME280;17297;54.022;10.760;2023-05-03T11:13:10;102901.88;;;14.97;43.80
30516;BME280;17297;54.022;10.760;2023-05-03T11:15:36;102892.72;;;14.98;43.63
30516;BME280;17297;54.022;10.760;2023-05-03T11:18:02;102897.50;;;14.96;43.64
30516;BME280;17297;54.022;10.760;2023-05-03T11:20:27;102893.06;;;14.95;43.63
30516;BME280;17297;54.022;10.760;2023-05-03T11:22:53;102890.34;;;14.95;43.37
30516;BME280;17297;54.022;10.760;2023-05-03T11:25:20;102895.78;;;14.95;43.65
30516;BME280;17297;54.022;10.760;2023-05-03T11:27:45;102893.75;;;14.97;43.60
30516;BME280;17297;54.022;10.760;2023-05-03T11:30:13;102893.59;;;14.98;43.57
30516;BME280;17297;54.022;10.760;2023-05-03T11:32:41;102894.09;;;15.02;43.45
30516;BME280;17297;54.022;10.760;2023-05-03T11:35:07;102895.25;;;15.08;43.46
30516;BME280;17297;54.022;10.760;2023-05-03T11:37:33;102899.00;;;15.07;42.99
30516;BME280;17297;54.022;10.760;2023-05-03T11:40:00;102888.00;;;15.08;43.09
30516;BME280;17297;54.022;10.760;2023-05-03T11:42:26;102881.38;;;15.19;43.08
30516;BME280;17297;54.022;10.760;2023-05-03T11:44:53;102888.47;;;15.28;42.96
30516;BME280;17297;54.022;10.760;2023-05-03T11:47:19;102888.28;;;15.38;42.89
30516;BME280;17297;54.022;10.760;2023-05-03T11:49:55;102890.97;;;15.46;42.62
30516;BME280;17297;54.022;10.760;2023-05-03T11:52:23;102891.13;;;15.53;42.60
30516;BME280;17297;54.022;10.760;2023-05-03T11:54:48;102901.44;;;15.57;42.62
30516;BME280;17297;54.022;10.760;2023-05-03T11:57:14;102887.72;;;15.59;42.56
30516;BME280;17297;54.022;10.760;2023-05-03T11:59:40;102886.69;;;15.60;42.17
30516;BME280;17297;54.022;10.760;2023-05-03T12:02:08;102882.81;;;15.54;42.08
30516;BME280;17297;54.022;10.760;2023-05-03T12:04:35;102888.41;;;15.53;42.12
30516;BME280;17297;54.022;10.760;2023-05-03T12:07:05;102892.16;;;15.52;42.37
30516;BME280;17297;54.022;10.760;2023-05-03T12:09:32;102898.44;;;15.52;42.50
30516;BME280;17297;54.022;10.760;2023-05-03T12:11:58;102883.84;;;15.53;42.38
30516;BME280;17297;54.022;10.760;2023-05-03T12:14:23;102881.13;;;15.53;42.38
30516;BME280;17297;54.022;10.760;2023-05-03T12:16:50;102889.59;;;15.50;42.33
30516;BME280;17297;54.022;10.760;2023-05-03T12:21:49;102889.59;;;15.50;42.60
30516;BME280;17297;54.022;10.760;2023-05-03T12:24:14;102879.75;;;15.57;42.48
30516;BME280;17297;54.022;10.760;2023-05-03T12:26:46;102884.66;;;15.62;42.45
30516;BME280;17297;54.022;10.760;2023-05-03T12:29:12;102886.00;;;15.66;42.21
30516;BME280;17297;54.022;10.760;2023-05-03T12:31:38;102877.00;;;15.65;41.81
30516;BME280;17297;54.022;10.760;2023-05-03T12:34:03;102877.84;;;15.66;42.09
30516;BME280;17297;54.022;10.760;2023-05-03T12:36:29;102874.81;;;15.69;41.95
30516;BME280;17297;54.022;10.760;2023-05-03T12:39:01;102867.53;;;15.69;42.02
30516;BME280;17297;54.022;10.760;2023-05-03T12:41:27;102864.66;;;15.71;42.16
30516;BME280;17297;54.022;10.760;2023-05-03T12:43:56;102871.25;;;15.77;41.99
30516;BME280;17297;54.022;10.760;2023-05-03T12:46:22;102869.66;;;15.82;42.25
30516;BME280;17297;54.022;10.760;2023-05-03T12:48:48;102871.31;;;15.91;41.94
30516;BME280;17297;54.022;10.760;2023-05-03T12:51:14;102860.31;;;15.93;41.88
30516;BME280;17297;54.022;10.760;2023-05-03T12:53:40;102862.66;;;15.96;41.83
30516;BME280;17297;54.022;10.760;2023-05-03T12:56:05;102855.69;;;16.02;41.85
30516;BME280;17297;54.022;10.760;2023-05-03T12:58:31;102856.81;;;16.07;41.64